sensor_id;sensor_type;location;lat;lon;timestamp;temperature;humidity
75451;DHT22;64029;48.244;9.188;2023-02-26T16:23:22;0.30;69.70
75451;DHT22;64029;48.244;9.188;2023-02-26T16:25:50;0.30;70.10
75451;DHT22;64029;48.244;9.188;2023-02-26T16:28:20;0.30;70.30
75451;DHT22;64029;48.244;9.188;2023-02-26T16:30:50;0.40;70.20
75451;DHT22;64029;48.244;9.188;2023-02-26T16:33:20;0.40;70.20
75451;DHT22;64029;48.244;9.188;2023-02-26T16:35:49;0.30;71.30
75451;DHT22;64029;48.244;9.188;2023-02-26T16:38:23;0.20;70.60
75451;DHT22;64029;48.244;9.188;2023-02-26T16:40:57;0.10;70.60
75451;DHT22;64029;48.244;9.188;2023-02-26T16:43:34;0.10;70.60
75451;DHT22;64029;48.244;9.188;2023-02-26T16:46:04;0.10;70.60
75451;DHT22;64029;48.244;9.188;2023-02-26T16:48:36;0.10;70.30
75451;DHT22;64029;48.244;9.188;2023-02-26T16:51:06;0.00;70.10
75451;DHT22;64029;48.244;9.188;2023-02-26T16:53:40;-0.10;70.20
75451;DHT22;64029;48.244;9.188;2023-02-26T16:56:10;-0.20;69.90
75451;DHT22;64029;48.244;9.188;2023-02-26T16:58:41;-0.20;70.00
75451;DHT22;64029;48.244;9.188;2023-02-26T17:01:13;-0.30;70.00
75451;DHT22;64029;48.244;9.188;2023-02-26T17:03:45;-0.30;70.60
75451;DHT22;64029;48.244;9.188;2023-02-26T17:06:15;-0.40;70.70
75451;DHT22;64029;48.244;9.188;2023-02-26T17:08:49;-0.50;71.30
75451;DHT22;64029;48.244;9.188;2023-02-26T17:11:24;-0.40;71.00
75451;DHT22;64029;48.244;9.188;2023-02-26T17:14:11;-0.40;70.80
75451;DHT22;64029;48.244;9.188;2023-02-26T17:16:39;-0.40;71.10
75451;DHT22;64029;48.244;9.188;2023-02-26T17:19:06;-0.30;70.90
75451;DHT22;64029;48.244;9.188;2023-02-26T17:21:39;-0.50;71.10
75451;DHT22;64029;48.244;9.188;2023-02-26T17:24:10;-0.50;71.40
75451;DHT22;64029;48.244;9.188;2023-02-26T17:26:39;-0.50;71.50
75451;DHT22;64029;48.244;9.188;2023-02-26T17:29:05;-0.50;71.30
75451;DHT22;64029;48.244;9.188;2023-02-26T17:31:33;-0.50;71.20
75451;DHT22;64029;48.244;9.188;2023-02-26T17:34:00;-0.50;71.10
75451;DHT22;64029;48.244;9.188;2023-02-26T17:36:27;-0.50;71.20
75451;DHT22;64029;48.244;9.188;2023-02-26T17:38:55;-0.60;71.00
75451;DHT22;64029;48.244;9.188;2023-02-26T17:41:23;-0.60;70.80
75451;DHT22;64029;48.244;9.188;2023-02-26T17:43:51;-0.60;70.70
75451;DHT22;64029;48.244;9.188;2023-02-26T17:46:19;-0.70;71.10
75451;DHT22;64029;48.244;9.188;2023-02-26T17:48:45;-0.70;70.90
75451;DHT22;64029;48.244;9.188;2023-02-26T17:51:12;-0.70;71.10
75451;DHT22;64029;48.244;9.188;2023-02-26T17:53:41;-0.70;71.00
75451;DHT22;64029;48.244;9.188;2023-02-26T17:56:11;-0.70;71.50
75451;DHT22;64029;48.244;9.188;2023-02-26T17:58:41;-0.70;70.90
75451;DHT22;64029;48.244;9.188;2023-02-26T18:01:10;-0.70;71.30
75451;DHT22;64029;48.244;9.188;2023-02-26T18:03:37;-0.80;70.70
75451;DHT22;64029;48.244;9.188;2023-02-26T18:06:05;-0.80;70.90
75451;DHT22;64029;48.244;9.188;2023-02-26T18:08:33;-0.80;71.80
75451;DHT22;64029;48.244;9.188;2023-02-26T18:11:01;-0.80;71.70
75451;DHT22;64029;48.244;9.188;2023-02-26T18:13:31;-0.80;71.70
75451;DHT22;64029;48.244;9.188;2023-02-26T18:16:00;-0.80;71.10
75451;DHT22;64029;48.244;9.188;2023-02-26T18:18:27;-0.80;71.60
75451;DHT22;64029;48.244;9.188;2023-02-26T18:20:55;-0.80;71.20
75451;DHT22;64029;48.244;9.188;2023-02-26T18:23:22;-0.80;71.40
75451;DHT22;64029;48.244;9.188;2023-02-26T18:25:51;-0.90;71.80
75451;DHT22;64029;48.244;9.188;2023-02-26T18:28:21;-0.90;71.20
75451;DHT22;64029;48.244;9.188;2023-02-26T18:30:49;-0.90;71.60
75451;DHT22;64029;48.244;9.188;2023-02-26T18:33:18;-0.90;71.30
75451;DHT22;64029;48.244;9.188;2023-02-26T18:35:47;-0.90;71.20
75451;DHT22;64029;48.244;9.188;2023-02-26T18:38:23;-0.90;71.70
75451;DHT22;64029;48.244;9.188;2023-02-26T18:40:50;-0.90;71.60
75451;DHT22;64029;48.244;9.188;2023-02-26T18:43:18;-0.90;71.50
75451;DHT22;64029;48.244;9.188;2023-02-26T18:45:47;-0.90;71.40
75451;DHT22;64029;48.244;9.188;2023-02-26T18:48:16;-0.90;71.30
75451;DHT22;64029;48.244;9.188;2023-02-26T18:50:46;-1.00;71.30
75451;DHT22;64029;48.244;9.188;2023-02-26T18:53:13;-1.00;71.20
75451;DHT22;64029;48.244;9.188;2023-02-26T18:55:42;-1.00;71.10
75451;DHT22;64029;48.244;9.188;2023-02-26T18:58:09;-1.00;71.20
75451;DHT22;64029;48.244;9.188;2023-02-26T19:00:36;-1.00;71.00
75451;DHT22;64029;48.244;9.188;2023-02-26T19:03:03;-1.10;71.40
75451;DHT22;64029;48.244;9.188;2023-02-26T19:05:29;-1.10;71.40
75451;DHT22;64029;48.244;9.188;2023-02-26T19:07:58;-1.20;71.50
75451;DHT22;64029;48.244;9.188;2023-02-26T19:10:25;-1.10;71.40
75451;DHT22;64029;48.244;9.188;2023-02-26T19:12:54;-1.10;72.60
75451;DHT22;64029;48.244;9.188;2023-02-26T19:15:20;-1.10;71.70
75451;DHT22;64029;48.244;9.188;2023-02-26T19:17:49;-1.10;71.60
75451;DHT22;64029;48.244;9.188;2023-02-26T19:20:17;-1.10;71.80
75451;DHT22;64029;48.244;9.188;2023-02-26T19:22:44;-1.10;71.70
75451;DHT22;64029;48.244;9.188;2023-02-26T19:25:13;-1.10;71.50
75451;DHT22;64029;48.244;9.188;2023-02-26T19:27:40;-1.10;71.60
75451;DHT22;64029;48.244;9.188;2023-02-26T19:30:08;-1.10;71.40
75451;DHT22;64029;48.244;9.188;2023-02-26T19:32:35;-1.10;71.40
75451;DHT22;64029;48.244;9.188;2023-02-26T19:35:03;-1.10;71.40
75451;DHT22;64029;48.244;9.188;2023-02-26T19:37:31;-1.10;71.70
75451;DHT22;64029;48.244;9.188;2023-02-26T19:39:57;-1.10;71.50
75451;DHT22;64029;48.244;9.188;2023-02-26T19:42:26;-1.10;71.40
75451;DHT22;64029;48.244;9.188;2023-02-26T19:44:54;-1.20;71.50
75451;DHT22;64029;48.244;9.188;2023-02-26T19:47:20;-1.20;71.40
75451;DHT22;64029;48.244;9.188;2023-02-26T19:49:48;-1.20;71.30
75451;DHT22;64029;48.244;9.188;2023-02-26T19:52:15;-1.20;71.60
75451;DHT22;64029;48.244;9.188;2023-02-26T19:54:42;-1.20;71.40
75451;DHT22;64029;48.244;9.188;2023-02-26T19:57:08;-1.30;71.40
75451;DHT22;64029;48.244;9.188;2023-02-26T19:59:37;-1.30;71.50
75451;DHT22;64029;48.244;9.188;2023-02-26T20:02:04;-1.20;71.60
75451;DHT22;64029;48.244;9.188;2023-02-26T20:04:31;-1.30;71.50
75451;DHT22;64029;48.244;9.188;2023-02-26T20:07:01;-1.30;71.70
75451;DHT22;64029;48.244;9.188;2023-02-26T20:09:31;-1.30;71.60
75451;DHT22;64029;48.244;9.188;2023-02-26T20:11:59;-1.30;71.40
75451;DHT22;64029;48.244;9.188;2023-02-26T20:14:26;-1.30;71.40
75451;DHT22;64029;48.244;9.188;2023-02-26T20:16:55;-1.30;71.40
75451;DHT22;64029;48.244;9.188;2023-02-26T20:19:22;-1.30;71.30
75451;DHT22;64029;48.244;9.188;2023-02-26T20:21:49;-1.30;71.60
75451;DHT22;64029;48.244;9.188;2023-02-26T20:24:16;-1.30;71.60
75451;DHT22;64029;48.244;9.188;2023-02-26T20:26:44;-1.30;71.90
75451;DHT22;64029;48.244;9.188;2023-02-26T20:29:13;-1.30;71.70
75451;DHT22;64029;48.244;9.188;2023-02-26T20:31:40;-1.30;71.60
75451;DHT22;64029;48.244;9.188;2023-02-26T20:34:11;-1.30;71.60
75451;DHT22;64029;48.244;9.188;2023-02-26T20:36:38;-1.30;71.40
75451;DHT22;64029;48.244;9.188;2023-02-26T20:39:05;-1.40;71.10
75451;DHT22;64029;48.244;9.188;2023-02-26T20:41:32;-1.40;71.30
75451;DHT22;64029;48.244;9.188;2023-02-26T20:43:59;-1.40;71.30
75451;DHT22;64029;48.244;9.188;2023-02-26T20:46:26;-1.30;71.40
75451;DHT22;64029;48.244;9.188;2023-02-26T20:48:54;-1.30;71.30
75451;DHT22;64029;48.244;9.188;2023-02-26T20:51:22;-1.30;71.10
75451;DHT22;64029;48.244;9.188;2023-02-26T20:53:49;-1.40;71.20
75451;DHT22;64029;48.244;9.188;2023-02-26T20:56:17;-1.30;71.40
75451;DHT22;64029;48.244;9.188;2023-02-26T20:58:44;-1.30;71.40
75451;DHT22;64029;48.244;9.188;2023-02-26T21:01:11;-1.30;71.30
75451;DHT22;64029;48.244;9.188;2023-02-26T21:03:37;-1.30;71.30
75451;DHT22;64029;48.244;9.188;2023-02-26T21:06:05;-1.30;71.30
75451;DHT22;64029;48.244;9.188;2023-02-26T21:08:34;-1.20;71.40
75451;DHT22;64029;48.244;9.188;2023-02-26T21:11:01;-1.20;71.30
75451;DHT22;64029;48.244;9.188;2023-02-26T21:13:27;-1.30;71.00
75451;DHT22;64029;48.244;9.188;2023-02-26T21:15:54;-1.30;71.00
75451;DHT22;64029;48.244;9.188;2023-02-26T21:18:21;-1.30;71.10
75451;DHT22;64029;48.244;9.188;2023-02-26T21:20:48;-1.30;71.00
75451;DHT22;64029;48.244;9.188;2023-02-26T21:23:15;-1.30;71.00
75451;DHT22;64029;48.244;9.188;2023-02-26T21:25:44;-1.30;70.90
75451;DHT22;64029;48.244;9.188;2023-02-26T21:28:11;-1.30;70.80
75451;DHT22;64029;48.244;9.188;2023-02-26T21:30:38;-1.30;71.10
75451;DHT22;64029;48.244;9.188;2023-02-26T21:33:04;-1.30;71.00
75451;DHT22;64029;48.244;9.188;2023-02-26T21:35:33;-1.30;70.70
75451;DHT22;64029;48.244;9.188;2023-02-26T21:38:00;-1.30;70.90
75451;DHT22;64029;48.244;9.188;2023-02-26T21:40:27;-1.30;70.80
75451;DHT22;64029;48.244;9.188;2023-02-26T21:42:55;-1.30;70.80
75451;DHT22;64029;48.244;9.188;2023-02-26T21:45:22;-1.30;70.90
75451;DHT22;64029;48.244;9.188;2023-02-26T21:47:49;-1.30;70.70
75451;DHT22;64029;48.244;9.188;2023-02-26T21:50:16;-1.30;71.10
75451;DHT22;64029;48.244;9.188;2023-02-26T21:52:43;-1.30;70.80
75451;DHT22;64029;48.244;9.188;2023-02-26T21:55:11;-1.40;70.80
75451;DHT22;64029;48.244;9.188;2023-02-26T21:57:38;-1.30;71.00
75451;DHT22;64029;48.244;9.188;2023-02-26T22:00:07;-1.40;70.80
75451;DHT22;64029;48.244;9.188;2023-02-26T22:02:35;-1.30;71.40
75451;DHT22;64029;48.244;9.188;2023-02-26T22:05:03;-1.30;70.80
75451;DHT22;64029;48.244;9.188;2023-02-26T22:07:30;-1.40;70.70
75451;DHT22;64029;48.244;9.188;2023-02-26T22:09:57;-1.40;70.60
75451;DHT22;64029;48.244;9.188;2023-02-26T22:12:24;-1.40;70.90
75451;DHT22;64029;48.244;9.188;2023-02-26T22:14:51;-1.40;70.70
75451;DHT22;64029;48.244;9.188;2023-02-26T22:17:19;-1.40;70.70
75451;DHT22;64029;48.244;9.188;2023-02-26T22:19:46;-1.40;70.90
75451;DHT22;64029;48.244;9.188;2023-02-26T22:22:13;-1.40;70.90
75451;DHT22;64029;48.244;9.188;2023-02-26T22:24:41;-1.40;70.80
75451;DHT22;64029;48.244;9.188;2023-02-26T22:27:08;-1.40;70.80
75451;DHT22;64029;48.244;9.188;2023-02-26T22:29:35;-1.50;70.70
75451;DHT22;64029;48.244;9.188;2023-02-26T22:32:03;-1.40;70.80
75451;DHT22;64029;48.244;9.188;2023-02-26T22:34:33;-1.40;70.70
75451;DHT22;64029;48.244;9.188;2023-02-26T22:37:01;-1.40;70.80
75451;DHT22;64029;48.244;9.188;2023-02-26T22:39:28;-1.40;70.70
75451;DHT22;64029;48.244;9.188;2023-02-26T22:41:55;-1.50;70.70
75451;DHT22;64029;48.244;9.188;2023-02-26T22:44:22;-1.50;70.70
75451;DHT22;64029;48.244;9.188;2023-02-26T22:46:49;-1.50;70.60
75451;DHT22;64029;48.244;9.188;2023-02-26T22:49:15;-1.50;70.60
75451;DHT22;64029;48.244;9.188;2023-02-26T22:51:44;-1.50;70.60
75451;DHT22;64029;48.244;9.188;2023-02-26T22:54:11;-1.50;70.60
75451;DHT22;64029;48.244;9.188;2023-02-26T22:56:38;-1.50;70.50
75451;DHT22;64029;48.244;9.188;2023-02-26T22:59:04;-1.50;71.40
75451;DHT22;64029;48.244;9.188;2023-02-26T23:01:31;-1.50;70.60
75451;DHT22;64029;48.244;9.188;2023-02-26T23:03:58;-1.50;70.50
75451;DHT22;64029;48.244;9.188;2023-02-26T23:06:25;-1.50;70.70
75451;DHT22;64029;48.244;9.188;2023-02-26T23:08:53;-1.50;70.80
75451;DHT22;64029;48.244;9.188;2023-02-26T23:11:20;-1.50;70.80
75451;DHT22;64029;48.244;9.188;2023-02-26T23:13:47;-1.50;70.90
75451;DHT22;64029;48.244;9.188;2023-02-26T23:16:14;-1.50;71.00
75451;DHT22;64029;48.244;9.188;2023-02-26T23:18:41;-1.50;71.60
75451;DHT22;64029;48.244;9.188;2023-02-26T23:21:10;-1.50;71.10
75451;DHT22;64029;48.244;9.188;2023-02-26T23:23:36;-1.60;70.70
75451;DHT22;64029;48.244;9.188;2023-02-26T23:26:05;-1.60;70.70
75451;DHT22;64029;48.244;9.188;2023-02-26T23:28:32;-1.50;70.60
75451;DHT22;64029;48.244;9.188;2023-02-26T23:30:59;-1.60;71.50
75451;DHT22;64029;48.244;9.188;2023-02-26T23:33:26;-1.60;70.90
75451;DHT22;64029;48.244;9.188;2023-02-26T23:35:52;-1.60;70.70
75451;DHT22;64029;48.244;9.188;2023-02-26T23:38:19;-1.60;71.00
75451;DHT22;64029;48.244;9.188;2023-02-26T23:40:46;-1.60;70.80
75451;DHT22;64029;48.244;9.188;2023-02-26T23:43:15;-1.60;70.70
75451;DHT22;64029;48.244;9.188;2023-02-26T23:45:43;-1.60;70.80
75451;DHT22;64029;48.244;9.188;2023-02-26T23:48:09;-1.60;70.60
75451;DHT22;64029;48.244;9.188;2023-02-26T23:50:36;-1.60;70.70
75451;DHT22;64029;48.244;9.188;2023-02-26T23:53:03;-1.60;70.70
75451;DHT22;64029;48.244;9.188;2023-02-26T23:55:30;-1.60;71.00
75451;DHT22;64029;48.244;9.188;2023-02-26T23:57:57;-1.60;70.70
